Time;durP1;ratioP1;P1;durP2;ratioP2;P2;SDS_P1;SDS_P2;PMS_P1;PMS_P2;Temp;Humidity;BMP_temperature;BMP_pressure;BME280_temperature;BME280_humidity;BME280_pressure;Samples;Min_cycle;Max_cycle;Signal;HPM_P1;HPM_P2
2022/01/19 00:00:49;;;;;;;3.91;2.03;;;;;;;4.41;78.51;100821.84;2019368;77;22599;-74
2022/01/19 00:03:52;;;;;;;1.74;1.55;;;;;;;4.36;78.56;100826.78;2020839;80;21240;-75
2022/01/19 00:06:55;;;;;;;2.85;1.23;;;;;;;4.34;78.66;100832.69;2021143;80;21191;-75
2022/01/19 00:10:03;;;;;;;1.60;1.45;;;;;;;4.31;78.82;100853.09;2021448;80;21141;-74
2022/01/19 00:13:05;;;;;;;2.82;1.77;;;;;;;4.28;78.88;100855.53;2021983;80;20312;-75
2022/01/19 00:16:08;;;;;;;2.30;1.41;;;;;;;4.26;78.86;100842.63;2020110;78;20663;-75
2022/01/19 00:19:10;;;;;;;2.28;1.51;;;;;;;4.27;78.85;100816.09;2020935;80;20311;-75
2022/01/19 00:22:13;;;;;;;3.33;1.70;;;;;;;4.25;78.76;100781.72;2021243;80;20907;-75
2022/01/19 00:25:16;;;;;;;2.76;1.40;;;;;;;4.25;78.47;100777.47;2019775;80;20362;-80
2022/01/19 00:28:20;;;;;;;2.63;1.80;;;;;;;4.23;78.37;100755.97;2018190;80;20335;-75
2022/01/19 00:31:23;;;;;;;2.63;1.84;;;;;;;4.20;78.37;100748.13;2017698;78;22442;-74
2022/01/19 00:34:26;;;;;;;1.95;1.75;;;;;;;4.16;78.41;100738.53;2084338;69;20470;-75
2022/01/19 00:37:28;;;;;;;2.05;1.86;;;;;;;4.12;78.44;100717.75;2020152;80;20333;-75
2022/01/19 00:40:31;;;;;;;2.50;1.86;;;;;;;4.03;78.49;100728.53;2020901;80;20369;-75
2022/01/19 00:43:36;;;;;;;2.40;1.59;;;;;;;3.93;78.62;100745.22;2021267;80;20337;-75
2022/01/19 00:46:39;;;;;;;3.22;1.76;;;;;;;3.88;78.73;100743.28;2019969;77;21423;-75
2022/01/19 00:49:43;;;;;;;1.51;1.41;;;;;;;3.81;78.88;100754.97;2020527;80;20359;-75
2022/01/19 00:52:46;;;;;;;2.83;1.48;;;;;;;3.78;78.82;100746.25;2020647;80;20300;-75
2022/01/19 00:55:48;;;;;;;1.66;1.55;;;;;;;3.73;78.83;100724.59;2022543;80;20344;-75
2022/01/19 00:58:51;;;;;;;1.81;1.60;;;;;;;3.69;78.92;100727.84;2022822;80;20417;-75
2022/01/19 01:01:54;;;;;;;2.34;1.69;;;;;;;3.64;79.10;100723.41;2020772;78;22258;-74
2022/01/19 01:04:57;;;;;;;1.74;1.64;;;;;;;3.59;79.21;100724.91;2023488;80;20446;-75
2022/01/19 01:08:00;;;;;;;3.04;1.42;;;;;;;3.51;79.39;100713.38;2022762;80;20369;-75
2022/01/19 01:11:02;;;;;;;1.75;1.64;;;;;;;3.45;79.47;100709.69;2022598;80;20753;-75
2022/01/19 01:17:14;;;;;;;2.06;1.56;;;;;;;3.40;79.88;100695.72;2021694;78;20943;-75
2022/01/19 01:20:17;;;;;;;2.78;1.60;;;;;;;3.36;79.83;100699.84;2022376;80;20417;-75
2022/01/19 01:23:23;;;;;;;2.05;1.29;;;;;;;3.32;80.02;100682.56;2022714;80;20212;-74
2022/01/19 01:26:26;;;;;;;1.55;1.30;;;;;;;3.29;80.01;100669.59;2023099;80;20404;-75
2022/01/19 01:29:29;;;;;;;2.01;1.50;;;;;;;3.24;80.11;100654.00;2023058;80;20369;-75
2022/01/19 01:32:31;;;;;;;1.44;1.34;;;;;;;3.21;80.23;100658.09;2020888;77;22905;-75
2022/01/19 01:35:34;;;;;;;2.38;1.41;;;;;;;3.16;80.35;100668.16;2022243;80;20335;-74
2022/01/19 01:38:37;;;;;;;2.47;1.70;;;;;;;3.12;80.62;100661.13;2022749;80;20308;-75
2022/01/19 01:41:42;;;;;;;1.38;1.27;;;;;;;3.10;80.67;100685.84;2022715;80;20389;-75
2022/01/19 01:44:48;;;;;;;2.39;1.54;;;;;;;3.04;80.67;100690.66;2022980;80;20349;-75
2022/01/19 01:47:58;;;;;;;2.09;1.48;;;;;;;3.01;80.89;100701.66;2021446;77;20375;-75
2022/01/19 01:54:21;;;;;;;3.19;1.30;;;;;;;2.81;80.79;100698.97;2023186;80;20821;-75
2022/01/19 01:57:24;;;;;;;3.79;1.46;;;;;;;2.67;80.83;100706.00;2023141;80;20871;-75
2022/01/19 02:00:27;;;;;;;2.41;2.09;;;;;;;2.58;81.07;100700.44;2017488;78;21857;-75
2022/01/19 02:03:36;;;;;;;1.91;1.40;;;;;;;2.47;81.45;100678.53;2023111;80;20316;-75
2022/01/19 02:10:06;;;;;;;2.04;1.24;;;;;;;2.24;81.95;100657.78;2024036;80;20304;-75
2022/01/19 02:23:26;;;;;;;4.78;2.00;;;;;;;1.77;83.06;100615.31;2023390;80;20393;-75
2022/01/19 02:26:45;;;;;;;1.98;1.88;;;;;;;1.70;83.45;100604.72;2023427;80;20423;-73
2022/01/19 02:30:34;;;;;;;2.88;2.00;;;;;;;1.70;84.21;100604.72;2023138;80;20432;-72
2022/01/19 02:40:18;;;;;;;3.90;2.55;;;;;;;1.69;85.08;100587.59;2017996;80;20382;-73
2022/01/19 02:43:22;;;;;;;2.80;2.42;;;;;;;1.65;85.02;100583.13;2017725;80;20378;-73
2022/01/19 02:49:14;;;;;;;2.70;2.00;;;;;;;1.63;85.26;100577.94;2018508;77;24430;-75
2022/01/19 02:50:03;;;;;;;5.30;2.61;;;;;;;1.60;85.33;100569.19;2023166;80;20324;-72
2022/01/19 02:53:05;;;;;;;2.72;2.40;;;;;;;1.61;85.67;100576.06;2022627;80;21240;-72
2022/01/19 02:56:23;;;;;;;4.14;2.66;;;;;;;1.60;85.58;100564.09;2022831;80;20396;-73
2022/01/19 02:59:40;;;;;;;3.22;2.40;;;;;;;1.58;85.63;100561.44;2023165;80;20327;-73
2022/01/19 03:09:31;;;;;;;3.14;2.15;;;;;;;1.45;85.73;100557.41;2024601;80;20348;-73
2022/01/19 03:12:34;;;;;;;2.40;2.14;;;;;;;1.41;85.71;100554.59;2027898;80;20424;-73
2022/01/19 03:15:36;;;;;;;3.49;2.45;;;;;;;1.38;85.82;100554.44;2022246;78;22575;-72
2022/01/19 03:18:39;;;;;;;3.51;2.69;;;;;;;1.33;85.81;100558.47;2024483;80;20381;-72
2022/01/19 03:21:43;;;;;;;2.99;2.45;;;;;;;1.26;85.59;100564.97;2024985;80;20336;-72
2022/01/19 03:24:54;;;;;;;3.21;2.34;;;;;;;1.18;85.49;100569.66;2024213;80;20370;-72
2022/01/19 03:27:57;;;;;;;4.03;2.49;;;;;;;1.12;85.35;100569.34;2024833;80;20324;-72
2022/01/19 03:31:01;;;;;;;2.45;2.28;;;;;;;1.06;85.44;100563.91;2022773;77;22528;-72
2022/01/19 03:34:06;;;;;;;3.56;2.45;;;;;;;1.01;85.59;100557.69;2019061;80;20345;-72
2022/01/19 03:37:09;;;;;;;2.65;2.39;;;;;;;0.96;85.72;100554.00;2019253;80;20337;-73
2022/01/19 03:40:12;;;;;;;3.71;2.42;;;;;;;0.88;85.65;100553.59;2018844;80;20900;-72
2022/01/19 03:43:15;;;;;;;3.10;2.49;;;;;;;0.77;85.44;100554.72;2019014;80;20470;-73
2022/01/19 03:46:21;;;;;;;4.88;2.54;;;;;;;0.71;85.64;100544.13;2016434;77;20331;-72
2022/01/19 03:49:29;;;;;;;4.21;2.39;;;;;;;0.66;85.93;100549.81;2018590;80;20361;-72
2022/01/19 03:52:32;;;;;;;3.33;2.68;;;;;;;0.58;86.16;100565.63;2018234;80;20906;-72
2022/01/19 03:55:36;;;;;;;4.39;3.19;;;;;;;0.51;86.72;100562.63;2018663;80;20180;-72
2022/01/19 03:58:39;;;;;;;6.23;3.28;;;;;;;0.47;86.88;100560.72;2019058;80;20193;-73
2022/01/19 04:01:43;;;;;;;4.22;2.79;;;;;;;0.40;86.94;100556.97;2017808;77;22578;-72
2022/01/19 04:04:52;;;;;;;3.20;2.70;;;;;;;0.37;87.06;100551.69;2018054;80;20376;-72
2022/01/19 04:08:06;;;;;;;4.27;2.54;;;;;;;0.31;87.05;100541.13;2018391;80;20360;-72
2022/01/19 04:11:18;;;;;;;3.51;2.42;;;;;;;0.26;87.05;100534.91;2018532;80;20192;-72
2022/01/19 04:14:22;;;;;;;4.12;3.03;;;;;;;0.19;87.15;100541.34;2017643;80;20318;-72
2022/01/19 04:17:25;;;;;;;3.17;2.61;;;;;;;0.14;87.17;100540.19;2016907;77;22575;-72
2022/01/19 04:20:27;;;;;;;3.54;2.38;;;;;;;0.09;87.14;100543.28;2018982;80;20164;-72
2022/01/19 04:23:34;;;;;;;3.40;2.74;;;;;;;-0.01;87.03;100547.88;2018063;80;20218;-72
2022/01/19 04:26:37;;;;;;;2.89;2.58;;;;;;;-0.06;87.29;100544.19;2018048;80;20180;-72
2022/01/19 04:29:40;;;;;;;4.16;3.04;;;;;;;-0.06;88.19;100540.75;2017493;80;20335;-72
2022/01/19 04:33:02;;;;;;;3.33;2.91;;;;;;;-0.11;88.23;100535.41;2016172;77;20693;-73
2022/01/19 04:36:25;;;;;;;4.22;2.34;;;;;;;-0.17;88.15;100537.63;2018475;80;20211;-72
2022/01/19 04:47:08;;;;;;;3.20;2.44;;;;;;;-0.46;88.39;100535.94;2016518;80;22367;-72
2022/01/19 05:07:17;;;;;;;4.34;3.16;;;;;;;-0.64;89.82;100532.34;2018249;80;20197;-72
2022/01/19 05:13:50;;;;;;;3.02;2.71;;;;;;;-0.63;90.20;100511.13;2017591;80;20542;-72
2022/01/19 05:16:53;;;;;;;4.72;3.21;;;;;;;-0.64;90.18;100506.81;2016499;78;21675;-72
2022/01/19 05:19:56;;;;;;;3.16;2.89;;;;;;;-0.69;89.93;100498.03;2018755;80;20215;-72
2022/01/19 05:22:58;;;;;;;4.58;2.66;;;;;;;-0.71;90.04;100503.06;2018341;80;21041;-72
2022/01/19 05:26:02;;;;;;;4.30;2.83;;;;;;;-0.78;89.91;100502.59;2018451;80;20221;-72
2022/01/19 05:29:05;;;;;;;3.13;2.61;;;;;;;-0.80;90.29;100506.72;2017975;80;20180;-72
2022/01/19 05:32:08;;;;;;;3.29;2.90;;;;;;;-0.81;90.28;100508.41;2014572;78;21390;-72
2022/01/19 05:35:11;;;;;;;4.64;3.42;;;;;;;-0.85;90.14;100506.47;2018402;80;20199;-72
2022/01/19 05:38:15;;;;;;;4.00;3.28;;;;;;;-0.87;90.20;100515.69;2017938;80;21574;-72
2022/01/19 05:41:17;;;;;;;4.70;3.28;;;;;;;-0.86;90.36;100499.59;2017329;80;20708;-72
2022/01/19 05:44:21;;;;;;;4.60;3.64;;;;;;;-0.87;90.33;100497.84;2023083;80;20216;-72
2022/01/19 05:47:23;;;;;;;4.19;3.56;;;;;;;-0.91;90.30;100501.88;2021737;78;22811;-72
2022/01/19 05:50:26;;;;;;;4.00;3.19;;;;;;;-0.91;90.37;100493.34;2023341;80;20384;-71
2022/01/19 05:53:28;;;;;;;7.67;4.72;;;;;;;-0.92;90.64;100497.56;2023211;80;20789;-72
2022/01/19 05:56:35;;;;;;;6.16;4.91;;;;;;;-0.88;91.33;100488.44;2026362;80;20304;-72
2022/01/19 05:59:38;;;;;;;7.33;4.98;;;;;;;-0.79;91.99;100493.19;2023628;80;20159;-72
2022/01/19 06:02:43;;;;;;;7.39;5.22;;;;;;;-0.78;92.09;100489.84;2022176;77;20219;-72
2022/01/19 06:05:45;;;;;;;6.97;5.34;;;;;;;-0.75;92.25;100495.13;2023004;80;20218;-72
2022/01/19 06:09:00;;;;;;;8.76;5.18;;;;;;;-0.77;92.29;100483.94;2023526;80;20175;-72
2022/01/19 06:12:07;;;;;;;8.72;5.92;;;;;;;-0.72;92.80;100474.88;2023772;80;20178;-73
2022/01/19 06:15:17;;;;;;;7.36;5.04;;;;;;;-0.67;93.04;100471.84;2021326;80;20188;-72
2022/01/19 06:18:21;;;;;;;7.07;5.47;;;;;;;-0.67;92.83;100474.38;2024918;80;20198;-72
2022/01/19 06:21:23;;;;;;;9.82;5.83;;;;;;;-0.63;92.99;100476.31;2023169;80;20167;-72
2022/01/19 06:24:27;;;;;;;6.42;4.86;;;;;;;-0.63;92.84;100480.53;2023585;80;20229;-72
2022/01/19 06:27:29;;;;;;;9.54;6.21;;;;;;;-0.67;92.59;100474.38;2022997;80;20174;-72
2022/01/19 06:30:32;;;;;;;9.26;6.06;;;;;;;-0.65;92.85;100482.13;2021187;78;21130;-72
2022/01/19 06:33:35;;;;;;;9.29;6.13;;;;;;;-0.68;92.74;100479.41;2023882;80;20268;-72
2022/01/19 06:36:38;;;;;;;11.61;6.26;;;;;;;-0.68;92.53;100484.50;2022637;80;20192;-72
2022/01/19 06:39:41;;;;;;;8.62;6.30;;;;;;;-0.71;92.65;100482.66;2022438;80;20175;-72
2022/01/19 06:42:44;;;;;;;8.92;6.56;;;;;;;-0.62;93.26;100477.19;2023071;80;20198;-71
2022/01/19 06:45:47;;;;;;;10.00;6.64;;;;;;;-0.49;93.59;100478.78;2021581;78;23590;-71
2022/01/19 06:48:50;;;;;;;12.08;7.47;;;;;;;-0.42;93.70;100486.84;2022385;80;20948;-70
2022/01/19 06:51:53;;;;;;;10.10;6.70;;;;;;;-0.33;93.87;100478.84;2021539;80;20214;-71
2022/01/19 06:54:56;;;;;;;10.03;7.01;;;;;;;-0.24;93.93;100475.91;2018478;80;20175;-71
2022/01/19 06:57:58;;;;;;;9.78;7.27;;;;;;;-0.16;94.02;100482.34;2022049;80;20227;-73
2022/01/19 07:01:01;;;;;;;13.14;7.63;;;;;;;-0.11;93.94;100479.25;2021600;80;20273;-73
2022/01/19 07:04:05;;;;;;;8.53;6.62;;;;;;;-0.05;93.83;100477.03;2022683;77;21166;-73
2022/01/19 07:07:08;;;;;;;8.98;7.11;;;;;;;0.01;93.75;100471.41;2022730;80;20512;-73
2022/01/19 07:10:10;;;;;;;10.42;7.01;;;;;;;0.06;93.79;100467.41;2023444;80;20174;-72
2022/01/19 07:13:13;;;;;;;12.99;8.19;;;;;;;0.08;93.57;100465.81;2023345;80;20927;-73
2022/01/19 07:16:16;;;;;;;13.10;8.07;;;;;;;0.14;93.54;100465.25;2021351;78;20629;-73
2022/01/19 07:19:19;;;;;;;11.48;8.16;;;;;;;0.18;93.51;100460.44;2023691;80;20901;-73
2022/01/19 07:22:22;;;;;;;12.59;8.04;;;;;;;0.23;93.42;100460.66;2022714;80;20249;-72
2022/01/19 07:25:24;;;;;;;11.62;8.16;;;;;;;0.26;93.29;100469.38;2022591;80;20192;-72
2022/01/19 07:28:27;;;;;;;14.40;8.71;;;;;;;0.26;93.07;100471.91;2023035;80;20226;-73
2022/01/19 07:31:30;;;;;;;13.08;8.91;;;;;;;0.29;92.93;100468.66;2021161;77;20968;-72
2022/01/19 07:34:32;;;;;;;13.48;9.34;;;;;;;0.28;92.69;100470.31;2023434;80;20785;-72
2022/01/19 07:37:36;;;;;;;15.50;9.02;;;;;;;0.29;92.72;100468.66;2019670;80;20175;-73
2022/01/19 07:40:38;;;;;;;13.27;9.97;;;;;;;0.33;92.76;100460.34;2023812;80;20671;-73
2022/01/19 07:43:41;;;;;;;15.54;9.69;;;;;;;0.37;92.79;100463.97;2023986;80;20206;-73
2022/01/19 07:46:43;;;;;;;15.44;9.91;;;;;;;0.41;92.72;100455.66;2021599;78;24889;-72
2022/01/19 07:49:47;;;;;;;15.25;10.74;;;;;;;0.43;92.58;100456.63;2023756;80;20430;-73
2022/01/19 07:52:50;;;;;;;14.44;10.14;;;;;;;0.42;92.53;100453.19;2022873;80;20969;-72
2022/01/19 07:55:53;;;;;;;16.67;11.24;;;;;;;0.45;92.47;100455.03;2024077;80;20187;-73
2022/01/19 07:58:56;;;;;;;18.89;11.60;;;;;;;0.44;92.26;100441.38;2023795;80;21383;-73
2022/01/19 08:01:59;;;;;;;17.67;11.87;;;;;;;0.47;92.27;100443.19;2022654;77;22126;-75
2022/01/19 08:05:02;;;;;;;19.59;12.13;;;;;;;0.49;92.25;100442.47;2023593;80;20244;-73
2022/01/19 08:08:05;;;;;;;18.93;12.24;;;;;;;0.51;92.19;100440.88;2023482;80;20191;-72
2022/01/19 08:11:08;;;;;;;19.12;12.20;;;;;;;0.51;92.12;100453.66;2023098;80;20240;-73
2022/01/19 08:14:10;;;;;;;19.85;12.09;;;;;;;0.52;92.13;100454.53;2023981;80;20243;-73
2022/01/19 08:17:13;;;;;;;17.80;12.37;;;;;;;0.57;92.22;100443.78;2022020;78;22142;-73
2022/01/19 08:20:18;;;;;;;19.80;12.16;;;;;;;0.59;92.11;100437.06;2024026;80;20255;-72
2022/01/19 08:23:20;;;;;;;19.09;12.27;;;;;;;0.63;92.13;100424.44;2023284;80;20429;-74
2022/01/19 08:26:23;;;;;;;18.32;12.67;;;;;;;0.67;91.98;100431.47;2028288;80;20516;-73
2022/01/19 08:29:25;;;;;;;21.63;12.74;;;;;;;0.68;92.02;100421.31;2024099;80;20256;-73
2022/01/19 08:32:28;;;;;;;19.65;12.04;;;;;;;0.67;91.90;100431.47;2021626;78;22720;-76
2022/01/19 08:35:34;;;;;;;17.58;11.79;;;;;;;0.71;92.01;100423.13;2023693;80;20816;-74
2022/01/19 08:38:37;;;;;;;20.80;12.20;;;;;;;0.74;91.94;100411.41;2024238;80;20350;-73
2022/01/19 08:41:40;;;;;;;20.74;13.02;;;;;;;0.76;91.87;100417.47;2023682;80;20461;-73
2022/01/19 08:44:43;;;;;;;20.44;12.68;;;;;;;0.75;91.84;100422.53;2023413;80;20323;-72
2022/01/19 08:47:46;;;;;;;16.70;12.26;;;;;;;0.78;92.03;100422.69;2022327;77;21279;-73
2022/01/19 08:50:49;;;;;;;20.00;12.24;;;;;;;0.82;92.01;100427.13;2023562;80;20981;-73
2022/01/19 08:53:52;;;;;;;21.86;12.71;;;;;;;0.83;91.94;100421.22;2023499;80;20833;-73
2022/01/19 08:56:55;;;;;;;16.65;11.88;;;;;;;0.84;91.86;100423.84;2023466;80;21026;-73
2022/01/19 08:59:58;;;;;;;19.48;12.24;;;;;;;0.88;91.91;100425.75;2023211;80;20332;-73
2022/01/19 09:03:00;;;;;;;18.93;12.73;;;;;;;0.89;91.75;100431.75;2021702;78;23085;-73
2022/01/19 09:06:03;;;;;;;19.86;12.61;;;;;;;0.89;91.63;100430.06;2023323;80;20199;-73
2022/01/19 09:09:06;;;;;;;18.34;12.56;;;;;;;0.90;91.65;100418.19;2024128;80;20404;-73
2022/01/19 09:12:09;;;;;;;22.58;13.63;;;;;;;0.94;91.74;100414.09;2023492;80;20327;-72
2022/01/19 09:15:12;;;;;;;21.24;13.11;;;;;;;0.93;91.64;100415.78;2021939;80;20351;-72
2022/01/19 09:18:15;;;;;;;22.58;14.82;;;;;;;0.97;91.74;100427.03;2023282;78;22238;-73
2022/01/19 09:21:17;;;;;;;23.36;13.05;;;;;;;1.00;91.63;100422.94;2023307;80;20326;-73
2022/01/19 09:24:20;;;;;;;21.24;13.51;;;;;;;1.02;91.61;100416.22;2023483;80;20330;-73
2022/01/19 09:27:22;;;;;;;20.83;14.13;;;;;;;1.08;91.64;100415.69;2023516;80;20458;-73
2022/01/19 09:30:25;;;;;;;19.01;11.81;;;;;;;1.14;91.61;100411.72;2021652;78;21975;-72
2022/01/19 09:33:30;;;;;;;21.83;13.30;;;;;;;1.17;91.53;100409.31;2022811;80;20830;-72
2022/01/19 09:36:35;;;;;;;19.45;12.56;;;;;;;1.20;91.39;100408.59;2023334;80;20694;-72
2022/01/19 09:39:39;;;;;;;18.90;12.70;;;;;;;1.24;91.24;100401.94;2023739;80;20327;-72
2022/01/19 09:42:44;;;;;;;20.34;13.05;;;;;;;1.25;90.90;100393.47;2022563;80;20421;-72
2022/01/19 09:45:52;;;;;;;22.90;14.14;;;;;;;1.27;90.95;100389.31;2017445;77;23496;-72
2022/01/19 09:48:56;;;;;;;23.80;14.29;;;;;;;1.32;90.85;100392.97;2022569;80;20552;-71
2022/01/19 09:51:59;;;;;;;23.84;14.64;;;;;;;1.35;90.87;100382.88;2021990;80;20903;-72
2022/01/19 09:55:02;;;;;;;23.21;14.39;;;;;;;1.33;90.51;100385.38;2021695;80;20453;-72
2022/01/19 09:58:06;;;;;;;21.92;13.49;;;;;;;1.37;90.55;100386.38;2020796;80;20316;-72
2022/01/19 10:01:08;;;;;;;20.08;13.07;;;;;;;1.38;90.56;100388.13;2022218;77;24763;-72
2022/01/19 10:04:20;;;;;;;21.00;13.27;;;;;;;1.42;90.54;100374.69;2021699;80;20692;-72
2022/01/19 10:07:24;;;;;;;22.36;13.30;;;;;;;1.41;90.42;100380.59;2021720;80;20351;-72
2022/01/19 10:10:27;;;;;;;20.96;13.35;;;;;;;1.42;90.62;100380.69;2021004;80;20311;-72
2022/01/19 10:17:06;;;;;;;20.58;12.20;;;;;;;1.51;90.75;100383.69;2019284;78;22801;-72
2022/01/19 10:20:21;;;;;;;21.09;12.90;;;;;;;1.48;90.59;100400.59;2021603;80;20294;-72
2022/01/19 10:23:44;;;;;;;22.91;14.30;;;;;;;1.49;90.86;100400.66;2022379;80;20357;-72
2022/01/19 10:26:49;;;;;;;21.71;13.04;;;;;;;1.52;90.87;100410.16;2021079;80;20187;-72
2022/01/19 10:30:02;;;;;;;19.61;12.51;;;;;;;1.56;90.89;100399.25;2021446;80;20374;-72
2022/01/19 10:33:04;;;;;;;23.00;14.09;;;;;;;1.62;90.90;100383.34;2020489;77;22282;-72
2022/01/19 10:36:07;;;;;;;23.55;13.06;;;;;;;1.60;90.65;100387.47;2021326;80;20348;-72
2022/01/19 10:39:10;;;;;;;24.59;14.24;;;;;;;1.61;90.84;100391.78;2021015;80;20305;-72
2022/01/19 10:42:16;;;;;;;25.27;14.56;;;;;;;1.61;90.89;100389.22;2022484;80;20931;-72
2022/01/19 10:45:18;;;;;;;24.70;14.02;;;;;;;1.63;90.93;100383.41;2019934;77;26713;-72
2022/01/19 10:48:39;;;;;;;23.61;13.45;;;;;;;1.70;91.04;100377.75;2021662;80;20710;-72
2022/01/19 10:51:47;;;;;;;21.02;12.86;;;;;;;1.73;90.94;100379.56;2021483;80;20351;-72
2022/01/19 10:54:49;;;;;;;28.35;15.76;;;;;;;1.78;91.06;100375.53;2017104;80;20332;-72
2022/01/19 10:57:54;;;;;;;22.80;14.05;;;;;;;1.76;90.98;100362.66;2020697;80;20905;-72
2022/01/19 11:00:57;;;;;;;23.52;13.06;;;;;;;1.80;91.20;100362.03;2018838;78;95286;-72
2022/01/19 11:04:24;;;;;;;23.92;13.89;;;;;;;1.85;91.17;100354.53;2021272;80;20326;-72
2022/01/19 11:07:27;;;;;;;24.10;13.52;;;;;;;1.83;90.99;100361.28;2020704;80;20324;-72
2022/01/19 11:10:31;;;;;;;23.71;13.01;;;;;;;1.85;91.12;100358.78;2021973;80;20941;-71
2022/01/19 11:13:40;;;;;;;23.06;12.64;;;;;;;1.89;91.05;100365.78;2021109;80;20501;-72
2022/01/19 11:16:43;;;;;;;24.88;13.66;;;;;;;1.89;90.97;100359.00;2019558;77;26946;-72
2022/01/19 11:19:46;;;;;;;25.09;14.01;;;;;;;1.93;90.97;100350.63;2020825;80;20449;-72
2022/01/19 11:23:02;;;;;;;27.91;14.99;;;;;;;1.96;90.89;100345.66;2021545;80;20763;-71
2022/01/19 11:26:09;;;;;;;25.38;13.01;;;;;;;2.00;90.83;100336.44;2017435;80;20943;-72
2022/01/19 11:29:19;;;;;;;25.76;15.18;;;;;;;2.01;90.70;100343.31;2020040;80;20336;-72
2022/01/19 11:32:21;;;;;;;23.70;14.19;;;;;;;2.00;90.66;100331.31;2019825;80;24871;-72
2022/01/19 11:35:33;;;;;;;26.31;15.09;;;;;;;2.01;90.72;100328.81;2020398;80;20394;-72
2022/01/19 11:38:45;;;;;;;24.19;14.36;;;;;;;2.01;90.63;100326.25;2022090;80;21028;-72
2022/01/19 11:41:54;;;;;;;24.98;14.77;;;;;;;2.00;90.64;100319.38;2021153;80;20320;-72
2022/01/19 11:44:57;;;;;;;21.90;13.41;;;;;;;2.00;90.72;100323.63;2020730;80;20365;-72
2022/01/19 11:48:19;;;;;;;26.33;14.38;;;;;;;1.96;91.08;100312.34;2019018;77;22190;-72
2022/01/19 11:51:29;;;;;;;25.06;13.65;;;;;;;1.97;91.39;100316.66;2020682;80;20331;-72
2022/01/19 11:54:33;;;;;;;29.42;16.04;;;;;;;1.99;91.68;100307.41;2020661;80;20308;-72
2022/01/19 11:57:36;;;;;;;25.54;14.31;;;;;;;1.97;91.98;100308.97;2020400;80;20316;-72
2022/01/19 12:00:42;;;;;;;27.80;15.09;;;;;;;1.94;92.35;100297.72;2017885;78;22972;-72
2022/01/19 12:03:45;;;;;;;29.94;15.79;;;;;;;1.97;92.61;100295.31;2020713;80;20340;-72
2022/01/19 12:07:33;;;;;;;26.71;14.65;;;;;;;2.00;92.69;100290.34;2020322;80;20340;-72
2022/01/19 12:10:43;;;;;;;24.54;13.43;;;;;;;2.00;92.97;100283.53;2020393;80;20320;-72
2022/01/19 12:14:19;;;;;;;22.63;12.61;;;;;;;1.99;93.04;100278.34;2020374;80;20885;-71
2022/01/19 12:17:26;;;;;;;24.73;13.99;;;;;;;1.92;92.99;100266.94;2018448;77;20915;-71
2022/01/19 12:20:55;;;;;;;24.94;14.86;;;;;;;1.96;93.32;100268.81;2021061;80;20332;-71
2022/01/19 12:24:26;;;;;;;26.36;14.27;;;;;;;1.97;93.53;100268.00;2020766;80;20315;-71
2022/01/19 12:27:34;;;;;;;28.31;14.61;;;;;;;1.97;93.53;100269.69;2021247;80;20312;-71
2022/01/19 12:30:37;;;;;;;25.24;13.57;;;;;;;1.99;93.73;100252.75;2019280;77;20963;-72
2022/01/19 12:34:02;;;;;;;24.96;13.82;;;;;;;2.01;93.81;100249.44;2017409;80;20565;-72
2022/01/19 12:37:05;;;;;;;23.42;12.85;;;;;;;2.01;93.98;100246.88;2016984;80;20361;-71
2022/01/19 12:40:16;;;;;;;26.15;13.15;;;;;;;2.03;94.11;100242.69;2021595;80;20324;-71
2022/01/19 12:43:37;;;;;;;22.46;12.75;;;;;;;2.04;94.11;100241.00;2021587;80;20377;-72
2022/01/19 12:46:40;;;;;;;21.61;12.10;;;;;;;2.09;94.18;100235.25;2019509;78;23116;-71
2022/01/19 12:49:43;;;;;;;22.35;12.59;;;;;;;2.09;94.09;100225.00;2022009;80;20824;-72
2022/01/19 12:52:49;;;;;;;22.49;13.00;;;;;;;2.08;94.06;100223.25;2020994;80;20386;-71
2022/01/19 12:56:04;;;;;;;23.80;12.55;;;;;;;2.10;94.11;100226.75;2020715;80;20359;-72
2022/01/19 12:59:09;;;;;;;24.23;12.77;;;;;;;2.13;94.08;100218.31;2020727;80;20308;-72
2022/01/19 13:02:14;;;;;;;26.34;13.75;;;;;;;2.15;94.15;100210.69;2019864;80;20425;-73
2022/01/19 13:05:20;;;;;;;26.46;13.82;;;;;;;2.14;93.93;100212.38;2021494;80;20316;-72
2022/01/19 13:08:31;;;;;;;21.94;12.14;;;;;;;2.17;93.95;100202.28;2017167;80;20776;-73
2022/01/19 13:11:39;;;;;;;21.81;12.65;;;;;;;2.22;93.93;100200.78;2020870;80;20341;-73
2022/01/19 13:14:41;;;;;;;23.39;12.63;;;;;;;2.26;93.78;100196.66;2021149;80;20323;-73
2022/01/19 13:17:50;;;;;;;20.11;11.49;;;;;;;2.24;93.60;100201.72;2019596;80;20857;-72
2022/01/19 13:20:54;;;;;;;;;;;;;;;2.25;93.56;100194.91;2021294;80;20332;-73
2022/01/19 13:24:12;;;;;;;21.14;11.50;;;;;;;2.25;93.58;100200.03;2020967;80;20078;-73
2022/01/19 13:27:15;;;;;;;21.99;11.50;;;;;;;2.26;93.58;100199.22;2021432;80;20320;-73
2022/01/19 13:30:18;;;;;;;23.09;12.44;;;;;;;2.30;93.78;100194.28;2019444;80;20678;-73
2022/01/19 13:33:20;;;;;;;23.91;13.11;;;;;;;2.33;93.62;100190.97;2021165;77;22901;-73
2022/01/19 13:36:31;;;;;;;18.58;11.21;;;;;;;2.32;93.67;100190.09;2021073;80;20439;-73
2022/01/19 13:39:34;;;;;;;21.09;11.81;;;;;;;2.31;93.56;100187.47;2021814;80;20325;-73
2022/01/19 13:42:41;;;;;;;21.85;11.73;;;;;;;2.29;93.67;100186.53;2021032;80;20358;-73
2022/01/19 13:49:03;;;;;;;19.66;11.05;;;;;;;2.30;93.95;100173.78;2021550;80;20970;-73
2022/01/19 13:52:07;;;;;;;19.97;10.41;;;;;;;2.31;93.97;100170.41;2020739;80;20369;-73
2022/01/19 13:55:21;;;;;;;19.77;11.32;;;;;;;2.36;94.05;100178.31;2021057;80;20304;-73
2022/01/19 13:58:49;;;;;;;18.63;10.29;;;;;;;2.37;94.17;100180.06;2016711;80;20730;-72
2022/01/19 14:02:03;;;;;;;17.25;10.65;;;;;;;2.45;94.26;100188.03;2019070;78;21629;-73
2022/01/19 14:05:08;;;;;;;17.81;9.84;;;;;;;2.50;94.22;100181.41;2021920;80;20215;-73
2022/01/19 14:08:11;;;;;;;21.13;10.74;;;;;;;2.52;94.20;100182.38;2024035;80;20413;-73
2022/01/19 14:11:25;;;;;;;14.16;9.09;;;;;;;2.52;94.10;100177.25;2021074;80;20312;-72
2022/01/19 14:14:35;;;;;;;13.01;7.80;;;;;;;2.56;94.04;100189.38;2017122;80;20884;-73
2022/01/19 14:17:40;;;;;;;14.98;8.81;;;;;;;2.59;94.17;100179.22;2018476;77;29744;-72
2022/01/19 14:20:42;;;;;;;12.65;7.43;;;;;;;2.62;94.13;100182.78;2016556;80;20804;-73
2022/01/19 14:23:57;;;;;;;14.46;7.85;;;;;;;2.61;94.13;100170.78;2020807;80;20334;-73
2022/01/19 14:27:00;;;;;;;13.06;7.57;;;;;;;2.62;94.34;100164.84;2021299;80;20381;-71
2022/01/19 14:30:18;;;;;;;15.34;9.13;;;;;;;2.63;94.24;100165.72;2018871;80;20323;-71
2022/01/19 14:33:20;;;;;;;13.54;7.71;;;;;;;2.59;94.24;100167.28;2021095;77;22246;-71
2022/01/19 14:36:23;;;;;;;13.86;8.39;;;;;;;2.63;94.34;100173.41;2021124;80;20762;-71
2022/01/19 14:39:26;;;;;;;12.35;7.60;;;;;;;2.66;94.29;100164.13;2020357;80;20319;-72
2022/01/19 14:42:34;;;;;;;13.94;8.25;;;;;;;2.69;94.24;100153.13;2021168;80;20465;-71
2022/01/19 14:45:38;;;;;;;13.48;7.81;;;;;;;2.70;94.33;100140.38;2019734;77;24671;-72
2022/01/19 14:48:44;;;;;;;13.10;7.44;;;;;;;2.73;94.28;100148.19;2020699;80;20278;-72
2022/01/19 14:51:47;;;;;;;13.65;8.05;;;;;;;2.76;94.23;100154.25;2021367;80;20493;-71
2022/01/19 14:54:50;;;;;;;11.90;7.63;;;;;;;2.75;94.06;100144.81;2020659;80;20389;-71
2022/01/19 14:57:52;;;;;;;12.35;7.57;;;;;;;2.79;94.17;100147.56;2024198;80;20893;-71
2022/01/19 15:00:57;;;;;;;12.95;7.46;;;;;;;2.80;93.90;100149.28;2019111;78;20340;-71
2022/01/19 15:04:02;;;;;;;12.16;7.36;;;;;;;2.82;94.04;100141.66;2021884;80;20802;-71
2022/01/19 15:07:05;;;;;;;15.70;8.23;;;;;;;2.85;94.10;100137.50;2020399;80;20316;-70
2022/01/19 15:10:08;;;;;;;11.16;6.76;;;;;;;2.84;93.87;100127.19;2016902;80;20320;-69
2022/01/19 15:13:11;;;;;;;12.21;7.53;;;;;;;2.83;94.12;100128.88;2020826;80;20320;-69
2022/01/19 15:16:15;;;;;;;8.94;5.56;;;;;;;2.85;94.30;100126.38;2019825;77;49226;-69
2022/01/19 15:19:17;;;;;;;11.36;6.03;;;;;;;2.86;94.30;100116.19;2021323;80;20320;-70
2022/01/19 15:22:22;;;;;;;9.71;6.19;;;;;;;2.87;94.29;100123.09;2021367;80;20774;-70
2022/01/19 15:25:45;;;;;;;9.07;5.56;;;;;;;2.89;94.20;100128.28;2021007;80;20339;-69
2022/01/19 15:28:48;;;;;;;9.07;5.63;;;;;;;2.88;94.13;100118.84;2021461;80;20413;-70
2022/01/19 15:31:53;;;;;;;8.91;5.51;;;;;;;2.87;94.08;100117.06;2018779;77;23878;-71